Nearby Airport METAR Reports

 

KVSF - Springfield, Vermont, USA
Distance from station: WSW 8mi, 12km
Updated: Tue, 09/26/2017 4:54am EDT
Fog, Overcast
Fog, Overcast
 Wind from calm
Wind: Calm
Temperature: 63°F , 17°C
Dew Point: 63°F , 17°C
Humidity: 100%
Barometer: 30.06 inHg , 1017.9 hPa
Summary: Fog
Clouds: Overcast
Visibility: 1/4 mile , 2 km
Cloud details: Overcast 200 ft
2017/09/26 08:54 KVSF 260854Z AUTO 00000KT 1/4SM FG VV002 17/17 A3006 RMK AO2 SLP176 T01720167 58001
KLEB - Lebanon, New Hampshire, USA
Distance from station: N 18mi, 29km
Updated: Tue, 09/26/2017 4:53am EDT
Fog, Overcast
Fog, Overcast
 Wind from NE
Wind: NE 3 mph , 6 km/h
Temperature: 66°F , 19°C
Dew Point: 64°F , 18°C
Humidity: 94%
Barometer: 30.04 inHg , 1017.3 hPa
Summary: Fog
Clouds: Overcast
Visibility: 1/2 mile , 2 km
Cloud details: Overcast 100 ft
2017/09/26 08:53 KLEB 260853Z AUTO 05003KT 1/2SM FG OVC001 19/18 A3004 RMK AO2 SLP162 T01890183 55000
KRUT - Rutland State, Vermont, USA
Distance from station: WNW 31mi, 50km
Updated: Tue, 09/26/2017 4:56am EDT
Clear
Clear
 Wind from ENE
Wind: ENE 3 mph , 6 km/h
Temperature: 66°F , 19°C
Dew Point: 64°F , 18°C
Humidity: 94%
Barometer: 30.06 inHg , 1017.9 hPa
Clouds: Clear
Visibility: 10 miles , 16 km
2017/09/26 08:56 KRUT 260856Z AUTO 07003KT 10SM CLR 19/18 A3006 RMK AO2 SLP186 T01890178 53001 $
 
KEEN - Keene/Dillant, New Hampshire, USA
Distance from station: S 34mi, 55km
Updated: Tue, 09/26/2017 4:56am EDT
Mist, Overcast
Mist, Overcast
 Wind from calm
Wind: Calm
Temperature: 63°F , 17°C
Dew Point: 63°F , 17°C
Humidity: 100%
Barometer: 30.06 inHg , 1017.9 hPa
Summary: Mist
Clouds: Overcast
Visibility: 2 miles , 3 km
Cloud details: Overcast 100 ft
2017/09/26 08:56 KEEN 260856Z AUTO 00000KT 2SM BR OVC001 17/17 A3006 RMK AO2 VIS 1V4 SLP190 T01720167 50000
K1P1 - Plymouth, New Hampshire, USA
Distance from station: NE 42mi, 67km
Updated: Tue, 09/26/2017 4:55am EDT
Fog, Overcast
Fog, Overcast
 Wind from calm
Wind: Calm
Temperature: 66°F , 19°C
Dew Point: 64°F , 18°C
Humidity: 94%
Barometer: 30.05 inHg , 1017.6 hPa
Summary: Fog
Clouds: Overcast
Visibility: 1/4 mile , 2 km
Cloud details: Overcast 100 ft
2017/09/26 08:55 K1P1 260855Z AUTO 00000KT 1/4SM FG OVC001 19/18 A3005 RMK AO2 T01860180
KAFN - Jaffrey, New Hampshire, USA
Distance from station: SSE 44mi, 70km
Updated: Tue, 09/26/2017 4:52am EDT
Mist, Clear
Mist, Clear
 Wind from calm
Wind: Calm
Temperature: 61°F , 16°C
Dew Point: 61°F , 16°C
Humidity: 100%
Barometer: 30.07 inHg , 1018.3 hPa
Summary: Mist
Clouds: Clear
Visibility: 6 miles , 10 km
2017/09/26 08:52 KAFN 260852Z AUTO 00000KT 6SM BR CLR 16/16 A3007 RMK AO2 SLP183 T01560156 56004
 
KCON - Concord, New Hampshire, USA
Distance from station: ESE 45mi, 73km
Updated: Tue, 09/26/2017 4:51am EDT
Mist, Clear
Mist, Clear
 Wind from calm
Wind: Calm
Temperature: 61°F , 16°C
Dew Point: 59°F , 15°C
Humidity: 94%
Barometer: 30.04 inHg , 1017.3 hPa
Summary: Mist
Clouds: Clear
Visibility: 4 miles , 6 km
2017/09/26 08:51 KCON 260851Z AUTO 00000KT 4SM BR CLR 16/15 A3004 RMK AO2 SLP172 T01560150 56004
KLCI - Laconia Muni, New Hampshire, USA
Distance from station: ENE 49mi, 80km
Updated: Tue, 09/26/2017 4:56am EDT
Clear
Clear
 Wind from SW
Wind: SW 5 mph , 7 km/h
Temperature: 64°F , 18°C
Dew Point: 64°F , 18°C
Humidity: 100%
Barometer: 30.05 inHg , 1017.6 hPa
Clouds: Clear
Visibility: 9 miles , 14 km
2017/09/26 08:56 KLCI 260856Z AUTO 23004KT 9SM CLR 18/18 A3005 RMK AO2 SLP184 T01830178 56004
KDDH - Bennington, Vermont, USA
Distance from station: SW 55mi, 89km
Updated: Tue, 09/26/2017 4:54am EDT
Fog, Overcast
Fog, Overcast
 Wind from calm
Wind: Calm
Temperature: 64°F , 18°C
Dew Point: 63°F , 17°C
Humidity: 94%
Barometer: 30.06 inHg , 1017.9 hPa
Summary: Fog
Clouds: Overcast
Visibility: 1/4 mile , 2 km
Cloud details: Overcast 200 ft
2017/09/26 08:54 KDDH 260854Z AUTO 00000KT 1/4SM FG VV002 18/17 A3006 RMK AO2 SLP173 T01780172 50002
 
K6B0 - Middlebury, Vermont, USA
Distance from station: NW 56mi, 90km
Updated: Tue, 09/26/2017 4:55am EDT
Mist, Clear
Mist, Clear
 Wind from calm
Wind: Calm
Temperature: 64°F , 18°C
Dew Point: 64°F , 18°C
Humidity: 100%
Barometer: 30.03 inHg , 1016.9 hPa
Summary: Mist
Clouds: Clear
Visibility: 5 miles , 8 km
2017/09/26 08:55 K6B0 260855Z AUTO 00000KT 5SM BR CLR 18/18 A3003 RMK AO2 T01770175
KMHT - Manchester, New Hampshire, USA
Distance from station: ESE 56mi, 90km
Updated: Tue, 09/26/2017 4:53am EDT
Few Clouds
Few Clouds
 Wind from N
Wind: N 3 mph , 6 km/h
Temperature: 64°F , 18°C
Dew Point: 61°F , 16°C
Humidity: 88%
Barometer: 30.03 inHg , 1016.9 hPa
Clouds: Few Clouds
Visibility: 10 miles , 16 km
Cloud details: Few Clouds 18000 ft
2017/09/26 08:53 KMHT 260853Z 36003KT 10SM FEW180 18/16 A3003 RMK AO2 SLP178 T01780161 55003
KORE - Orange, Massachusetts, USA
Distance from station: S 56mi, 90km
Updated: Tue, 09/26/2017 4:52am EDT
Fog, Overcast
Fog, Overcast
 Wind from calm
Wind: Calm
Temperature: 63°F , 17°C
Dew Point: 63°F , 17°C
Humidity: 100%
Barometer: 30.06 inHg , 1017.9 hPa
Summary: Fog
Clouds: Overcast
Visibility: 1/4 mile , 2 km
Cloud details: Overcast 200 ft
2017/09/26 08:52 KORE 260852Z AUTO 00000KT 1/4SM FG VV002 17/17 A3006 RMK AO2 SLP176 T01720172 55003 TSNO
 
KMPV - Montpelier/Barre, Vermont, USA
Distance from station: N 58mi, 93km
Updated: Tue, 09/26/2017 4:51am EDT
Fog, Overcast
Fog, Overcast
 Wind from calm
Wind: Calm
Temperature: 61°F , 16°C
Dew Point: 61°F , 16°C
Humidity: 100%
Barometer: 30.10 inHg , 1019.3 hPa
Summary: Fog
Clouds: Overcast
Visibility: 1/4 mile , 2 km
Cloud details: Overcast 100 ft
2017/09/26 08:51 KMPV 260851Z AUTO 00000KT 1/4SM FG VV001 16/16 A3010 RMK AO2 SLP188 T01560156 53001
KASH - Nashua/Boire Fld, New Hampshire, USA
Distance from station: SE 59mi, 95km
Updated: Tue, 09/26/2017 4:56am EDT
Mostly cloudy
Mostly cloudy
 Wind from calm
Wind: Calm
Temperature: 63°F , 17°C
Dew Point: 61°F , 16°C
Humidity: 94%
Barometer: 30.04 inHg , 1017.3 hPa
Clouds: Mostly cloudy
Visibility: 10 miles , 16 km
Cloud details: Mostly cloudy 400 ft
2017/09/26 08:56 KASH 260856Z AUTO 00000KT 10SM BKN004 17/16 A3004 RMK AO2 SLP180 T01670156 56003
KAQW - North Adams, Massachusetts, USA
Distance from station: SW 62mi, 99km
Updated: Tue, 09/26/2017 4:52am EDT
Fog, Overcast
Fog, Overcast
 Wind from calm
Wind: Calm
Temperature: 61°F , 16°C
Dew Point: 61°F , 16°C
Humidity: 100%
Barometer: 30.06 inHg , 1017.9 hPa
Summary: Fog
Clouds: Overcast
Visibility: 1/2 mile , 2 km
Cloud details: Overcast 200 ft
2017/09/26 08:52 KAQW 260852Z AUTO 00000KT 1/2SM FG VV002 16/16 A3006 RMK AO2 SLP177 T01610156 50002
 
KGFL - Glens Falls, New York, USA
Distance from station: W 63mi, 101km
Updated: Tue, 09/26/2017 5:02am EDT
Mist, Overcast
Mist, Overcast
 Wind from calm
Wind: Calm
Temperature: 63°F , 17°C
Dew Point: 61°F , 16°C
Humidity: 94%
Barometer: 30.03 inHg , 1016.9 hPa
Summary: Mist
Clouds: Overcast
Visibility: 3/4 mile , 5 km
Cloud details: Overcast 200 ft
2017/09/26 09:02 KGFL 260902Z AUTO 00000KT 3/4SM BR VV002 17/16 A3003 RMK AO2 T01670161
KFIT - Fitchburg, Massachusetts, USA
Distance from station: SSE 65mi, 105km
Updated: Tue, 09/26/2017 4:52am EDT
Clear
Clear
 Wind from calm
Wind: Calm
Temperature: 63°F , 17°C
Dew Point: 61°F , 16°C
Humidity: 94%
Barometer: 30.05 inHg , 1017.6 hPa
Clouds: Clear
Visibility: 10 miles , 16 km
2017/09/26 08:52 KFIT 260852Z AUTO 00000KT 10SM CLR 17/16 A3005 RMK AO2 SLP172 T01720161 56007
KDAW - Rochester, New Hampshire, USA
Distance from station: E 73mi, 118km
Updated: Tue, 09/26/2017 4:51am EDT
Clear
Clear
 Wind from calm
Wind: Calm
Temperature: 61°F , 16°C
Dew Point: 57°F , 14°C
Humidity: 88%
Barometer: 30.03 inHg , 1016.9 hPa
Clouds: Clear
Visibility: 10 miles , 16 km
2017/09/26 08:51 KDAW 260851Z AUTO 00000KT 10SM CLR 16/14 A3003 RMK AO2 SLP166 T01560139 55004
 
K1V4 - St. Johnsbury, Vermont, USA
Distance from station: NNE 74mi, 119km
Updated: Tue, 09/26/2017 4:54am EDT

 
Temperature: 61°F , 16°C
Dew Point: 61°F , 16°C
Humidity: 100%
Barometer: 30.05 inHg , 1017.6 hPa
2017/09/26 08:54 K1V4 260854Z AUTO 16/16 A3005 RMK AO1 SLP163 60001 T01610161 53002
KLWM - Lawrence, Massachusetts, USA
Distance from station: SE 77mi, 124km
Updated: Tue, 09/26/2017 4:54am EDT
Fog, Overcast
Fog, Overcast
 Wind from calm
Wind: Calm
Temperature: 66°F , 19°C
Dew Point: 64°F , 18°C
Humidity: 94%
Barometer: 30.04 inHg , 1017.3 hPa
Summary: Fog
Clouds: Overcast
Visibility: 1/4 mile , 2 km
Cloud details: Overcast 200 ft
2017/09/26 08:54 KLWM 260854Z AUTO 00000KT 1/4SM FG VV002 19/18 A3004 RMK AO2 SLP171 T01940183 58009

free counter page views since 4/29/2009